sensor_id;sensor_type;location;lat;lon;timestamp;temperature;humidity
1702;DHT22;848;48.354;10.064;2022-08-02T00:00:22;18.50;99.90
1702;DHT22;848;48.354;10.064;2022-08-02T00:02:49;18.50;99.90
1702;DHT22;848;48.354;10.064;2022-08-02T00:05:18;18.50;99.90
1702;DHT22;848;48.354;10.064;2022-08-02T00:07:45;18.50;99.90
1702;DHT22;848;48.354;10.064;2022-08-02T00:10:11;18.50;99.90
1702;DHT22;848;48.354;10.064;2022-08-02T00:12:38;18.60;99.90
1702;DHT22;848;48.354;10.064;2022-08-02T00:15:07;18.50;99.90
1702;DHT22;848;48.354;10.064;2022-08-02T00:17:34;18.50;99.90
1702;DHT22;848;48.354;10.064;2022-08-02T00:20:05;18.60;99.90
1702;DHT22;848;48.354;10.064;2022-08-02T00:22:34;18.50;99.90
1702;DHT22;848;48.354;10.064;2022-08-02T00:25:01;18.50;99.90
1702;DHT22;848;48.354;10.064;2022-08-02T00:27:29;18.50;99.90
1702;DHT22;848;48.354;10.064;2022-08-02T00:29:58;18.50;99.90
1702;DHT22;848;48.354;10.064;2022-08-02T00:32:25;18.40;99.90
1702;DHT22;848;48.354;10.064;2022-08-02T00:34:52;18.40;99.90
1702;DHT22;848;48.354;10.064;2022-08-02T00:37:19;18.30;99.90
1702;DHT22;848;48.354;10.064;2022-08-02T00:39:47;18.30;99.90
1702;DHT22;848;48.354;10.064;2022-08-02T00:42:14;18.20;99.90
1702;DHT22;848;48.354;10.064;2022-08-02T00:44:42;18.20;99.90
1702;DHT22;848;48.354;10.064;2022-08-02T00:47:09;18.10;99.90
1702;DHT22;848;48.354;10.064;2022-08-02T00:49:36;18.00;99.90
1702;DHT22;848;48.354;10.064;2022-08-02T00:52:03;18.00;99.90
1702;DHT22;848;48.354;10.064;2022-08-02T00:54:30;17.90;99.90
1702;DHT22;848;48.354;10.064;2022-08-02T00:56:59;17.90;99.90
1702;DHT22;848;48.354;10.064;2022-08-02T00:59:26;17.90;99.90
1702;DHT22;848;48.354;10.064;2022-08-02T01:01:53;17.80;99.90
1702;DHT22;848;48.354;10.064;2022-08-02T01:04:20;17.80;99.90
1702;DHT22;848;48.354;10.064;2022-08-02T01:06:47;17.80;99.90
1702;DHT22;848;48.354;10.064;2022-08-02T01:09:14;17.70;99.90
1702;DHT22;848;48.354;10.064;2022-08-02T01:11:41;17.70;99.90
1702;DHT22;848;48.354;10.064;2022-08-02T01:14:11;17.70;99.90
1702;DHT22;848;48.354;10.064;2022-08-02T01:16:44;17.60;99.90
1702;DHT22;848;48.354;10.064;2022-08-02T01:19:30;17.60;99.90
1702;DHT22;848;48.354;10.064;2022-08-02T01:22:13;17.60;99.90
1702;DHT22;848;48.354;10.064;2022-08-02T01:24:58;17.60;99.90
1702;DHT22;848;48.354;10.064;2022-08-02T01:27:39;17.60;99.90
1702;DHT22;848;48.354;10.064;2022-08-02T01:30:10;17.60;99.90
1702;DHT22;848;48.354;10.064;2022-08-02T01:32:42;17.60;99.90
1702;DHT22;848;48.354;10.064;2022-08-02T01:35:14;17.60;99.90
1702;DHT22;848;48.354;10.064;2022-08-02T01:37:47;17.50;99.90
1702;DHT22;848;48.354;10.064;2022-08-02T01:40:19;17.50;99.90
1702;DHT22;848;48.354;10.064;2022-08-02T01:42:51;17.50;99.90
1702;DHT22;848;48.354;10.064;2022-08-02T01:45:24;17.50;99.90
1702;DHT22;848;48.354;10.064;2022-08-02T01:47:53;17.50;99.90
1702;DHT22;848;48.354;10.064;2022-08-02T01:50:23;17.40;99.90
1702;DHT22;848;48.354;10.064;2022-08-02T01:52:54;17.40;99.90
1702;DHT22;848;48.354;10.064;2022-08-02T01:55:29;17.50;99.90
1702;DHT22;848;48.354;10.064;2022-08-02T01:57:58;17.50;99.90
1702;DHT22;848;48.354;10.064;2022-08-02T02:00:30;17.40;99.90
1702;DHT22;848;48.354;10.064;2022-08-02T02:03:00;17.50;99.90
1702;DHT22;848;48.354;10.064;2022-08-02T02:05:30;17.40;99.90
1702;DHT22;848;48.354;10.064;2022-08-02T02:07:59;17.40;99.90
1702;DHT22;848;48.354;10.064;2022-08-02T02:10:28;17.40;99.90
1702;DHT22;848;48.354;10.064;2022-08-02T02:13:01;17.40;99.90
1702;DHT22;848;48.354;10.064;2022-08-02T02:15:30;17.40;99.90
1702;DHT22;848;48.354;10.064;2022-08-02T02:17:59;17.40;99.90
1702;DHT22;848;48.354;10.064;2022-08-02T02:20:28;17.40;99.90
1702;DHT22;848;48.354;10.064;2022-08-02T02:22:56;17.30;99.90
1702;DHT22;848;48.354;10.064;2022-08-02T02:25:24;17.30;99.90
1702;DHT22;848;48.354;10.064;2022-08-02T02:27:54;17.30;99.90
1702;DHT22;848;48.354;10.064;2022-08-02T02:30:24;17.30;99.90
1702;DHT22;848;48.354;10.064;2022-08-02T02:32:56;17.30;99.90
1702;DHT22;848;48.354;10.064;2022-08-02T02:35:26;17.30;99.90
1702;DHT22;848;48.354;10.064;2022-08-02T02:37:56;17.30;99.90
1702;DHT22;848;48.354;10.064;2022-08-02T02:40:26;17.30;99.90
1702;DHT22;848;48.354;10.064;2022-08-02T02:42:55;17.30;99.90
1702;DHT22;848;48.354;10.064;2022-08-02T02:45:24;17.30;99.90
1702;DHT22;848;48.354;10.064;2022-08-02T02:47:54;17.20;99.90
1702;DHT22;848;48.354;10.064;2022-08-02T02:50:21;17.20;99.90
1702;DHT22;848;48.354;10.064;2022-08-02T02:52:51;17.20;99.90
1702;DHT22;848;48.354;10.064;2022-08-02T02:55:18;17.20;99.90
1702;DHT22;848;48.354;10.064;2022-08-02T02:57:45;17.20;99.90
1702;DHT22;848;48.354;10.064;2022-08-02T03:00:14;17.20;99.90
1702;DHT22;848;48.354;10.064;2022-08-02T03:03:02;17.20;99.90
1702;DHT22;848;48.354;10.064;2022-08-02T03:05:29;17.20;99.90
1702;DHT22;848;48.354;10.064;2022-08-02T03:07:56;17.20;99.90
1702;DHT22;848;48.354;10.064;2022-08-02T03:10:23;17.20;99.90
1702;DHT22;848;48.354;10.064;2022-08-02T03:12:51;17.20;99.90
1702;DHT22;848;48.354;10.064;2022-08-02T03:15:18;17.10;99.90
1702;DHT22;848;48.354;10.064;2022-08-02T03:17:46;17.10;99.90
1702;DHT22;848;48.354;10.064;2022-08-02T03:20:17;17.10;99.90
1702;DHT22;848;48.354;10.064;2022-08-02T03:22:45;17.10;99.90
1702;DHT22;848;48.354;10.064;2022-08-02T03:25:13;17.10;99.90
1702;DHT22;848;48.354;10.064;2022-08-02T03:27:43;17.00;99.90
1702;DHT22;848;48.354;10.064;2022-08-02T03:30:12;17.00;99.90
1702;DHT22;848;48.354;10.064;2022-08-02T03:32:43;17.00;99.90
1702;DHT22;848;48.354;10.064;2022-08-02T03:35:14;17.00;99.90
1702;DHT22;848;48.354;10.064;2022-08-02T03:37:44;17.00;99.90
1702;DHT22;848;48.354;10.064;2022-08-02T03:40:12;16.90;99.90
1702;DHT22;848;48.354;10.064;2022-08-02T03:42:40;16.90;99.90
1702;DHT22;848;48.354;10.064;2022-08-02T03:45:09;16.90;99.90
1702;DHT22;848;48.354;10.064;2022-08-02T03:47:38;16.80;99.90
1702;DHT22;848;48.354;10.064;2022-08-02T03:50:07;16.90;99.90
1702;DHT22;848;48.354;10.064;2022-08-02T03:52:36;16.90;99.90
1702;DHT22;848;48.354;10.064;2022-08-02T03:55:05;16.90;99.90
1702;DHT22;848;48.354;10.064;2022-08-02T03:57:32;16.90;99.90
1702;DHT22;848;48.354;10.064;2022-08-02T03:59:59;16.90;99.90
1702;DHT22;848;48.354;10.064;2022-08-02T04:02:26;16.90;99.90
1702;DHT22;848;48.354;10.064;2022-08-02T04:04:53;17.00;99.90
1702;DHT22;848;48.354;10.064;2022-08-02T04:07:19;17.00;99.90
1702;DHT22;848;48.354;10.064;2022-08-02T04:09:46;17.00;99.90
1702;DHT22;848;48.354;10.064;2022-08-02T04:12:15;17.00;99.90
1702;DHT22;848;48.354;10.064;2022-08-02T04:14:41;17.10;99.90
1702;DHT22;848;48.354;10.064;2022-08-02T04:17:10;17.10;99.90
1702;DHT22;848;48.354;10.064;2022-08-02T04:19:39;17.20;99.90
1702;DHT22;848;48.354;10.064;2022-08-02T04:22:13;17.30;99.90
1702;DHT22;848;48.354;10.064;2022-08-02T04:24:46;17.40;99.90
1702;DHT22;848;48.354;10.064;2022-08-02T04:27:16;17.40;99.90
1702;DHT22;848;48.354;10.064;2022-08-02T04:29:47;17.50;99.90
1702;DHT22;848;48.354;10.064;2022-08-02T04:32:15;17.50;99.90
1702;DHT22;848;48.354;10.064;2022-08-02T04:34:42;17.60;99.90
1702;DHT22;848;48.354;10.064;2022-08-02T04:37:11;17.60;99.90
1702;DHT22;848;48.354;10.064;2022-08-02T04:39:39;17.70;99.90
1702;DHT22;848;48.354;10.064;2022-08-02T04:42:06;17.60;99.90
1702;DHT22;848;48.354;10.064;2022-08-02T04:44:35;17.60;99.90
1702;DHT22;848;48.354;10.064;2022-08-02T04:47:03;17.60;99.90
1702;DHT22;848;48.354;10.064;2022-08-02T04:49:30;17.60;99.90
1702;DHT22;848;48.354;10.064;2022-08-02T04:51:57;17.60;99.90
1702;DHT22;848;48.354;10.064;2022-08-02T04:54:25;17.70;99.90
1702;DHT22;848;48.354;10.064;2022-08-02T04:56:52;17.70;99.90
1702;DHT22;848;48.354;10.064;2022-08-02T04:59:19;17.70;99.90
1702;DHT22;848;48.354;10.064;2022-08-02T05:01:48;17.70;99.90
1702;DHT22;848;48.354;10.064;2022-08-02T05:04:15;17.70;99.90
1702;DHT22;848;48.354;10.064;2022-08-02T05:06:42;17.80;99.90
1702;DHT22;848;48.354;10.064;2022-08-02T05:09:14;17.80;99.90
1702;DHT22;848;48.354;10.064;2022-08-02T05:11:41;17.80;99.90
1702;DHT22;848;48.354;10.064;2022-08-02T05:14:08;17.90;99.90
1702;DHT22;848;48.354;10.064;2022-08-02T05:16:35;17.90;99.90
1702;DHT22;848;48.354;10.064;2022-08-02T05:19:03;17.90;99.90
1702;DHT22;848;48.354;10.064;2022-08-02T05:21:30;17.90;99.90
1702;DHT22;848;48.354;10.064;2022-08-02T05:23:57;18.00;99.90
1702;DHT22;848;48.354;10.064;2022-08-02T05:26:24;18.00;99.90
1702;DHT22;848;48.354;10.064;2022-08-02T05:28:51;18.10;99.90
1702;DHT22;848;48.354;10.064;2022-08-02T05:31:18;18.20;99.90
1702;DHT22;848;48.354;10.064;2022-08-02T05:33:45;18.20;99.90
1702;DHT22;848;48.354;10.064;2022-08-02T05:36:14;18.10;99.90
1702;DHT22;848;48.354;10.064;2022-08-02T05:38:41;18.00;99.90
1702;DHT22;848;48.354;10.064;2022-08-02T05:41:08;18.10;99.90
1702;DHT22;848;48.354;10.064;2022-08-02T05:43:35;18.30;99.90
1702;DHT22;848;48.354;10.064;2022-08-02T05:46:02;18.40;99.90
1702;DHT22;848;48.354;10.064;2022-08-02T05:48:29;18.60;99.90
1702;DHT22;848;48.354;10.064;2022-08-02T05:51:01;18.70;99.90
1702;DHT22;848;48.354;10.064;2022-08-02T05:53:36;18.70;99.90
1702;DHT22;848;48.354;10.064;2022-08-02T05:56:13;18.80;99.90
1702;DHT22;848;48.354;10.064;2022-08-02T05:58:49;18.80;99.90
1702;DHT22;848;48.354;10.064;2022-08-02T06:01:21;18.90;99.90
1702;DHT22;848;48.354;10.064;2022-08-02T06:03:51;19.00;99.90
1702;DHT22;848;48.354;10.064;2022-08-02T06:06:20;19.10;99.90
1702;DHT22;848;48.354;10.064;2022-08-02T06:08:52;19.20;99.90
1702;DHT22;848;48.354;10.064;2022-08-02T06:11:21;19.30;99.90
1702;DHT22;848;48.354;10.064;2022-08-02T06:13:48;19.40;99.90
1702;DHT22;848;48.354;10.064;2022-08-02T06:16:18;19.50;99.90
1702;DHT22;848;48.354;10.064;2022-08-02T06:18:47;19.70;99.90
1702;DHT22;848;48.354;10.064;2022-08-02T06:21:16;19.80;99.90
1702;DHT22;848;48.354;10.064;2022-08-02T06:23:48;20.00;99.90
1702;DHT22;848;48.354;10.064;2022-08-02T06:26:16;20.20;99.90
1702;DHT22;848;48.354;10.064;2022-08-02T06:28:45;20.40;99.90
1702;DHT22;848;48.354;10.064;2022-08-02T06:31:14;20.80;99.90
1702;DHT22;848;48.354;10.064;2022-08-02T06:33:41;21.50;99.90
1702;DHT22;848;48.354;10.064;2022-08-02T06:36:14;22.40;99.90
1702;DHT22;848;48.354;10.064;2022-08-02T06:38:43;23.40;99.90
1702;DHT22;848;48.354;10.064;2022-08-02T06:41:14;23.90;99.90
1702;DHT22;848;48.354;10.064;2022-08-02T06:43:46;24.20;99.90
1702;DHT22;848;48.354;10.064;2022-08-02T06:46:14;24.20;99.90
1702;DHT22;848;48.354;10.064;2022-08-02T06:48:41;23.60;99.90
1702;DHT22;848;48.354;10.064;2022-08-02T06:51:08;23.40;99.90
1702;DHT22;848;48.354;10.064;2022-08-02T06:53:35;23.10;99.90
1702;DHT22;848;48.354;10.064;2022-08-02T06:56:02;22.70;99.90
1702;DHT22;848;48.354;10.064;2022-08-02T06:58:31;22.70;99.90
1702;DHT22;848;48.354;10.064;2022-08-02T07:00:58;22.70;99.90
1702;DHT22;848;48.354;10.064;2022-08-02T07:03:25;22.80;99.90
1702;DHT22;848;48.354;10.064;2022-08-02T07:05:53;22.90;99.90
1702;DHT22;848;48.354;10.064;2022-08-02T07:08:20;23.00;99.90
1702;DHT22;848;48.354;10.064;2022-08-02T07:10:47;23.30;99.90
1702;DHT22;848;48.354;10.064;2022-08-02T07:13:14;23.10;99.90
1702;DHT22;848;48.354;10.064;2022-08-02T07:15:42;23.30;99.90
1702;DHT22;848;48.354;10.064;2022-08-02T07:18:10;23.60;99.90
1702;DHT22;848;48.354;10.064;2022-08-02T07:20:40;23.60;99.90
1702;DHT22;848;48.354;10.064;2022-08-02T07:23:07;23.60;99.90
1702;DHT22;848;48.354;10.064;2022-08-02T07:25:36;23.60;99.90
1702;DHT22;848;48.354;10.064;2022-08-02T07:28:03;23.40;99.90
1702;DHT22;848;48.354;10.064;2022-08-02T07:30:30;23.50;99.90
1702;DHT22;848;48.354;10.064;2022-08-02T07:32:59;23.70;99.90
1702;DHT22;848;48.354;10.064;2022-08-02T07:35:26;24.10;99.90
1702;DHT22;848;48.354;10.064;2022-08-02T07:37:54;24.10;99.90
1702;DHT22;848;48.354;10.064;2022-08-02T07:40:21;23.90;99.90
1702;DHT22;848;48.354;10.064;2022-08-02T07:42:50;23.80;99.90
1702;DHT22;848;48.354;10.064;2022-08-02T07:45:20;23.90;99.90
1702;DHT22;848;48.354;10.064;2022-08-02T07:47:49;24.00;99.90
1702;DHT22;848;48.354;10.064;2022-08-02T07:50:19;24.10;99.90
1702;DHT22;848;48.354;10.064;2022-08-02T07:52:47;24.10;99.90
1702;DHT22;848;48.354;10.064;2022-08-02T07:55:15;24.00;99.90
1702;DHT22;848;48.354;10.064;2022-08-02T07:57:43;24.10;99.90
1702;DHT22;848;48.354;10.064;2022-08-02T08:00:11;24.30;99.90
1702;DHT22;848;48.354;10.064;2022-08-02T08:02:38;24.60;99.90
1702;DHT22;848;48.354;10.064;2022-08-02T08:05:06;24.50;99.90
1702;DHT22;848;48.354;10.064;2022-08-02T08:07:34;24.40;99.90
1702;DHT22;848;48.354;10.064;2022-08-02T08:10:02;24.50;99.90
1702;DHT22;848;48.354;10.064;2022-08-02T08:12:29;24.60;99.90
1702;DHT22;848;48.354;10.064;2022-08-02T08:14:56;24.90;99.90
1702;DHT22;848;48.354;10.064;2022-08-02T08:17:23;25.40;99.90
1702;DHT22;848;48.354;10.064;2022-08-02T08:19:50;26.00;99.90
1702;DHT22;848;48.354;10.064;2022-08-02T08:22:17;26.40;99.90
1702;DHT22;848;48.354;10.064;2022-08-02T08:24:47;26.60;99.90
1702;DHT22;848;48.354;10.064;2022-08-02T08:27:14;26.60;99.90
1702;DHT22;848;48.354;10.064;2022-08-02T08:29:41;27.00;99.90
1702;DHT22;848;48.354;10.064;2022-08-02T08:32:09;27.20;99.90
1702;DHT22;848;48.354;10.064;2022-08-02T08:34:35;27.40;99.90
1702;DHT22;848;48.354;10.064;2022-08-02T08:37:02;27.30;99.90
1702;DHT22;848;48.354;10.064;2022-08-02T08:39:29;27.20;99.90
1702;DHT22;848;48.354;10.064;2022-08-02T08:41:58;27.20;99.90
1702;DHT22;848;48.354;10.064;2022-08-02T08:44:25;27.20;99.90
1702;DHT22;848;48.354;10.064;2022-08-02T08:46:54;27.40;99.90
1702;DHT22;848;48.354;10.064;2022-08-02T08:49:25;27.60;99.90
1702;DHT22;848;48.354;10.064;2022-08-02T08:51:54;27.40;99.90
1702;DHT22;848;48.354;10.064;2022-08-02T08:54:23;26.70;99.90
1702;DHT22;848;48.354;10.064;2022-08-02T08:56:51;26.60;99.90
1702;DHT22;848;48.354;10.064;2022-08-02T08:59:21;26.70;99.90
1702;DHT22;848;48.354;10.064;2022-08-02T09:01:49;26.90;99.90
1702;DHT22;848;48.354;10.064;2022-08-02T09:04:16;27.10;99.90
1702;DHT22;848;48.354;10.064;2022-08-02T09:06:43;27.30;99.90
1702;DHT22;848;48.354;10.064;2022-08-02T09:09:10;27.40;99.90
1702;DHT22;848;48.354;10.064;2022-08-02T09:11:37;27.30;99.90
1702;DHT22;848;48.354;10.064;2022-08-02T09:14:04;27.20;99.90
1702;DHT22;848;48.354;10.064;2022-08-02T09:16:34;27.20;99.90
1702;DHT22;848;48.354;10.064;2022-08-02T09:19:17;27.00;99.90
1702;DHT22;848;48.354;10.064;2022-08-02T09:21:45;26.90;99.90
1702;DHT22;848;48.354;10.064;2022-08-02T09:24:15;26.80;99.90
1702;DHT22;848;48.354;10.064;2022-08-02T09:26:43;26.80;99.90
1702;DHT22;848;48.354;10.064;2022-08-02T09:29:10;26.90;99.90
1702;DHT22;848;48.354;10.064;2022-08-02T09:31:39;27.20;99.90
1702;DHT22;848;48.354;10.064;2022-08-02T09:34:06;27.40;99.90
1702;DHT22;848;48.354;10.064;2022-08-02T09:36:38;27.60;99.90
1702;DHT22;848;48.354;10.064;2022-08-02T09:39:07;27.60;99.90
1702;DHT22;848;48.354;10.064;2022-08-02T09:41:37;27.80;99.90
1702;DHT22;848;48.354;10.064;2022-08-02T09:44:06;27.90;99.90
1702;DHT22;848;48.354;10.064;2022-08-02T09:46:36;27.70;99.90
1702;DHT22;848;48.354;10.064;2022-08-02T09:49:06;27.40;99.90
1702;DHT22;848;48.354;10.064;2022-08-02T09:51:35;27.30;99.90
1702;DHT22;848;48.354;10.064;2022-08-02T09:54:04;27.20;99.90
1702;DHT22;848;48.354;10.064;2022-08-02T09:56:45;27.00;99.90
1702;DHT22;848;48.354;10.064;2022-08-02T09:59:15;27.10;99.90
1702;DHT22;848;48.354;10.064;2022-08-02T10:01:43;27.10;99.90
1702;DHT22;848;48.354;10.064;2022-08-02T10:04:13;27.00;99.90
1702;DHT22;848;48.354;10.064;2022-08-02T10:06:41;27.00;99.90
1702;DHT22;848;48.354;10.064;2022-08-02T10:09:10;27.10;99.90
1702;DHT22;848;48.354;10.064;2022-08-02T10:11:38;27.00;99.90
1702;DHT22;848;48.354;10.064;2022-08-02T10:14:08;27.10;99.90
1702;DHT22;848;48.354;10.064;2022-08-02T10:16:36;27.10;99.90
1702;DHT22;848;48.354;10.064;2022-08-02T10:19:04;27.10;99.90
1702;DHT22;848;48.354;10.064;2022-08-02T10:21:37;27.00;99.90
1702;DHT22;848;48.354;10.064;2022-08-02T10:24:06;26.90;99.90
1702;DHT22;848;48.354;10.064;2022-08-02T10:26:34;26.90;99.90
1702;DHT22;848;48.354;10.064;2022-08-02T10:29:02;26.90;99.90
1702;DHT22;848;48.354;10.064;2022-08-02T10:31:36;26.90;99.90
1702;DHT22;848;48.354;10.064;2022-08-02T10:34:07;26.80;99.90
1702;DHT22;848;48.354;10.064;2022-08-02T10:36:39;26.50;99.90
1702;DHT22;848;48.354;10.064;2022-08-02T10:39:06;26.30;99.90
1702;DHT22;848;48.354;10.064;2022-08-02T10:41:44;26.20;99.90
1702;DHT22;848;48.354;10.064;2022-08-02T10:44:25;26.20;99.90
1702;DHT22;848;48.354;10.064;2022-08-02T10:47:18;26.30;99.90
1702;DHT22;848;48.354;10.064;2022-08-02T10:49:48;26.30;99.90
1702;DHT22;848;48.354;10.064;2022-08-02T10:52:17;26.30;99.90
1702;DHT22;848;48.354;10.064;2022-08-02T10:54:48;26.20;99.90
1702;DHT22;848;48.354;10.064;2022-08-02T10:57:18;25.80;99.90
1702;DHT22;848;48.354;10.064;2022-08-02T10:59:47;25.70;99.90
1702;DHT22;848;48.354;10.064;2022-08-02T11:02:32;25.80;99.90
1702;DHT22;848;48.354;10.064;2022-08-02T11:05:11;25.60;99.90
1702;DHT22;848;48.354;10.064;2022-08-02T11:07:42;25.50;99.90
1702;DHT22;848;48.354;10.064;2022-08-02T11:10:29;25.40;99.90
1702;DHT22;848;48.354;10.064;2022-08-02T11:13:02;25.50;99.90
1702;DHT22;848;48.354;10.064;2022-08-02T11:15:29;25.40;99.90
1702;DHT22;848;48.354;10.064;2022-08-02T11:17:57;25.40;99.90
1702;DHT22;848;48.354;10.064;2022-08-02T11:20:25;25.40;99.90
1702;DHT22;848;48.354;10.064;2022-08-02T11:22:54;25.40;99.90
1702;DHT22;848;48.354;10.064;2022-08-02T11:25:32;25.50;99.90
1702;DHT22;848;48.354;10.064;2022-08-02T11:28:07;25.50;99.90
1702;DHT22;848;48.354;10.064;2022-08-02T11:30:34;25.50;99.90
1702;DHT22;848;48.354;10.064;2022-08-02T11:33:01;25.50;99.90
1702;DHT22;848;48.354;10.064;2022-08-02T11:35:33;25.60;99.90
1702;DHT22;848;48.354;10.064;2022-08-02T11:38:19;25.70;99.90
1702;DHT22;848;48.354;10.064;2022-08-02T11:40:47;25.70;99.90
1702;DHT22;848;48.354;10.064;2022-08-02T11:43:16;25.60;99.90
1702;DHT22;848;48.354;10.064;2022-08-02T11:45:43;25.50;99.90
1702;DHT22;848;48.354;10.064;2022-08-02T11:48:10;25.30;99.90
1702;DHT22;848;48.354;10.064;2022-08-02T11:50:37;25.20;99.90
1702;DHT22;848;48.354;10.064;2022-08-02T11:53:12;25.20;99.90
1702;DHT22;848;48.354;10.064;2022-08-02T11:55:40;25.40;99.90
1702;DHT22;848;48.354;10.064;2022-08-02T11:58:07;25.50;99.90
1702;DHT22;848;48.354;10.064;2022-08-02T12:00:38;25.50;99.90
1702;DHT22;848;48.354;10.064;2022-08-02T12:03:06;25.40;99.90
1702;DHT22;848;48.354;10.064;2022-08-02T12:05:33;25.20;99.90
1702;DHT22;848;48.354;10.064;2022-08-02T12:08:05;25.10;99.90
1702;DHT22;848;48.354;10.064;2022-08-02T12:10:33;25.10;99.90
1702;DHT22;848;48.354;10.064;2022-08-02T12:13:01;24.90;99.90
1702;DHT22;848;48.354;10.064;2022-08-02T12:15:30;25.10;99.90
1702;DHT22;848;48.354;10.064;2022-08-02T12:17:57;25.10;99.90
1702;DHT22;848;48.354;10.064;2022-08-02T12:20:42;25.10;99.90
1702;DHT22;848;48.354;10.064;2022-08-02T12:23:09;25.10;99.90
1702;DHT22;848;48.354;10.064;2022-08-02T12:25:36;25.10;99.90
1702;DHT22;848;48.354;10.064;2022-08-02T12:28:15;25.10;99.90
1702;DHT22;848;48.354;10.064;2022-08-02T12:30:50;25.10;99.90
1702;DHT22;848;48.354;10.064;2022-08-02T12:33:18;25.10;99.90
1702;DHT22;848;48.354;10.064;2022-08-02T12:35:45;25.10;99.90
1702;DHT22;848;48.354;10.064;2022-08-02T12:38:12;25.10;99.90
1702;DHT22;848;48.354;10.064;2022-08-02T12:40:40;25.00;99.90
1702;DHT22;848;48.354;10.064;2022-08-02T12:43:17;25.10;99.90
1702;DHT22;848;48.354;10.064;2022-08-02T12:45:48;25.20;99.90
1702;DHT22;848;48.354;10.064;2022-08-02T12:48:16;25.30;99.90
1702;DHT22;848;48.354;10.064;2022-08-02T12:50:43;25.40;99.90
1702;DHT22;848;48.354;10.064;2022-08-02T12:53:12;25.40;99.90
1702;DHT22;848;48.354;10.064;2022-08-02T12:55:47;25.30;99.90
1702;DHT22;848;48.354;10.064;2022-08-02T12:58:15;25.20;99.90
1702;DHT22;848;48.354;10.064;2022-08-02T13:00:50;25.20;99.90
1702;DHT22;848;48.354;10.064;2022-08-02T13:03:18;25.30;99.90
1702;DHT22;848;48.354;10.064;2022-08-02T13:05:45;25.40;99.90
1702;DHT22;848;48.354;10.064;2022-08-02T13:08:15;25.40;99.90
1702;DHT22;848;48.354;10.064;2022-08-02T13:10:42;25.50;99.90
1702;DHT22;848;48.354;10.064;2022-08-02T13:13:09;25.60;99.90
1702;DHT22;848;48.354;10.064;2022-08-02T13:15:36;25.70;99.90
1702;DHT22;848;48.354;10.064;2022-08-02T13:18:04;25.70;99.90
1702;DHT22;848;48.354;10.064;2022-08-02T13:20:31;25.70;99.90
1702;DHT22;848;48.354;10.064;2022-08-02T13:22:58;25.70;99.90
1702;DHT22;848;48.354;10.064;2022-08-02T13:25:25;25.70;99.90
1702;DHT22;848;48.354;10.064;2022-08-02T13:27:54;25.80;99.90
1702;DHT22;848;48.354;10.064;2022-08-02T13:30:21;25.80;99.90
1702;DHT22;848;48.354;10.064;2022-08-02T13:32:49;25.90;99.90
1702;DHT22;848;48.354;10.064;2022-08-02T13:35:17;25.80;99.90
1702;DHT22;848;48.354;10.064;2022-08-02T13:37:44;25.70;99.90
1702;DHT22;848;48.354;10.064;2022-08-02T13:40:12;25.60;99.90
1702;DHT22;848;48.354;10.064;2022-08-02T13:42:39;25.50;99.90
1702;DHT22;848;48.354;10.064;2022-08-02T13:45:08;25.50;99.90
1702;DHT22;848;48.354;10.064;2022-08-02T13:47:37;25.50;99.90
1702;DHT22;848;48.354;10.064;2022-08-02T13:50:05;25.50;99.90
1702;DHT22;848;48.354;10.064;2022-08-02T13:52:34;25.50;99.90
1702;DHT22;848;48.354;10.064;2022-08-02T13:55:01;25.30;99.90
1702;DHT22;848;48.354;10.064;2022-08-02T13:57:28;25.30;99.90
1702;DHT22;848;48.354;10.064;2022-08-02T13:59:55;25.30;99.90
1702;DHT22;848;48.354;10.064;2022-08-02T14:02:22;25.40;99.90
1702;DHT22;848;48.354;10.064;2022-08-02T14:04:49;25.40;99.90
1702;DHT22;848;48.354;10.064;2022-08-02T14:07:16;25.40;99.90
1702;DHT22;848;48.354;10.064;2022-08-02T14:09:44;25.50;99.90
1702;DHT22;848;48.354;10.064;2022-08-02T14:12:14;25.50;99.90
1702;DHT22;848;48.354;10.064;2022-08-02T14:14:41;25.60;99.90
1702;DHT22;848;48.354;10.064;2022-08-02T14:17:08;25.60;99.90
1702;DHT22;848;48.354;10.064;2022-08-02T14:19:36;25.60;99.90
1702;DHT22;848;48.354;10.064;2022-08-02T14:22:03;25.70;99.90
1702;DHT22;848;48.354;10.064;2022-08-02T14:24:29;25.70;99.90
1702;DHT22;848;48.354;10.064;2022-08-02T14:26:58;25.90;99.90
1702;DHT22;848;48.354;10.064;2022-08-02T14:29:26;25.90;99.90
1702;DHT22;848;48.354;10.064;2022-08-02T14:31:53;25.90;99.90
1702;DHT22;848;48.354;10.064;2022-08-02T14:34:23;26.00;99.90
1702;DHT22;848;48.354;10.064;2022-08-02T14:36:50;26.00;99.90
1702;DHT22;848;48.354;10.064;2022-08-02T14:39:17;25.90;99.90
1702;DHT22;848;48.354;10.064;2022-08-02T14:41:44;25.80;99.90
1702;DHT22;848;48.354;10.064;2022-08-02T14:44:13;25.80;99.90
1702;DHT22;848;48.354;10.064;2022-08-02T14:46:40;25.80;99.90
1702;DHT22;848;48.354;10.064;2022-08-02T14:49:08;24.60;99.90
1702;DHT22;848;48.354;10.064;2022-08-02T14:51:36;24.50;99.90
1702;DHT22;848;48.354;10.064;2022-08-02T14:54:05;24.30;99.90
1702;DHT22;848;48.354;10.064;2022-08-02T14:56:33;24.20;99.90
1702;DHT22;848;48.354;10.064;2022-08-02T14:59:00;24.00;99.90
1702;DHT22;848;48.354;10.064;2022-08-02T15:01:28;24.10;99.90
1702;DHT22;848;48.354;10.064;2022-08-02T15:03:56;24.00;99.90
1702;DHT22;848;48.354;10.064;2022-08-02T15:06:23;23.70;99.90
1702;DHT22;848;48.354;10.064;2022-08-02T15:08:53;23.50;99.90
1702;DHT22;848;48.354;10.064;2022-08-02T15:11:20;23.60;99.90
1702;DHT22;848;48.354;10.064;2022-08-02T15:13:47;24.00;99.90
1702;DHT22;848;48.354;10.064;2022-08-02T15:16:14;23.70;99.90
1702;DHT22;848;48.354;10.064;2022-08-02T15:18:42;23.70;99.90
1702;DHT22;848;48.354;10.064;2022-08-02T15:21:09;23.60;99.90
1702;DHT22;848;48.354;10.064;2022-08-02T15:23:37;24.10;99.90
1702;DHT22;848;48.354;10.064;2022-08-02T15:26:04;23.90;99.90
1702;DHT22;848;48.354;10.064;2022-08-02T15:28:32;23.70;99.90
1702;DHT22;848;48.354;10.064;2022-08-02T15:30:59;23.30;99.90
1702;DHT22;848;48.354;10.064;2022-08-02T15:33:26;23.00;99.90
1702;DHT22;848;48.354;10.064;2022-08-02T15:35:54;23.00;99.90
1702;DHT22;848;48.354;10.064;2022-08-02T15:38:21;23.10;99.90
1702;DHT22;848;48.354;10.064;2022-08-02T15:40:49;23.10;99.90
1702;DHT22;848;48.354;10.064;2022-08-02T15:43:15;23.50;99.90
1702;DHT22;848;48.354;10.064;2022-08-02T15:45:42;23.10;99.90
1702;DHT22;848;48.354;10.064;2022-08-02T15:48:09;22.90;99.90
1702;DHT22;848;48.354;10.064;2022-08-02T15:50:37;22.70;99.90
1702;DHT22;848;48.354;10.064;2022-08-02T15:53:06;22.90;99.90
1702;DHT22;848;48.354;10.064;2022-08-02T15:55:33;22.90;99.90
1702;DHT22;848;48.354;10.064;2022-08-02T15:58:00;22.80;99.90
1702;DHT22;848;48.354;10.064;2022-08-02T16:00:27;22.60;99.90
1702;DHT22;848;48.354;10.064;2022-08-02T16:02:55;22.70;99.90
1702;DHT22;848;48.354;10.064;2022-08-02T16:05:22;22.90;99.90
1702;DHT22;848;48.354;10.064;2022-08-02T16:07:49;22.70;99.90
1702;DHT22;848;48.354;10.064;2022-08-02T16:10:17;22.70;99.90
1702;DHT22;848;48.354;10.064;2022-08-02T16:12:44;22.60;99.90